Aviation Digital Data Service (ADDS)

Output produced by METARs form (1056 UTC 28 September 2021)
found at http://www.aviationweather.gov/metar/data/
 
VTBD 281030Z 30005KT 260V330 9999 FEW020 SCT030 31/25 Q1006 NOSIG
VTBD 281000Z 31007KT 280V340 9999 FEW020 31/24 Q1006 NOSIG
VTBD 280930Z 28007KT 250V320 9999 FEW020 31/23 Q1006 NOSIG
VTBD 280900Z 28008KT 260V320 9999 FEW020 30/24 Q1006 NOSIG
VTBD 280830Z 26011KT 9999 FEW020 29/24 Q1007 NOSIG
VTBD 280800Z 26013KT 9999 FEW020 SCT040 28/25 Q1007 NOSIG
VTBD 280730Z 23008G27KT 190V280 9999 FEW020CB SCT040 30/25 Q1007 NOSIG
VTBD 280700Z 34006KT 320V030 9999 FEW020 SCT040 32/25 Q1008 NOSIG
VTBD 280630Z 01007KT 330V050 9999 FEW020 SCT040 32/25 Q1008 NOSIG
VTBD 280600Z 32007KT 9999 FEW020 SCT040 32/25 Q1008 NOSIG
VTBD 280530Z VRB05KT 9999 FEW020 SCT040 32/25 Q1009 NOSIG
VTBD 280500Z 35007KT 310V040 9999 FEW020 31/26 Q1010 NOSIG
VTBD 280430Z VRB05KT 9999 FEW020 32/25 Q1010 NOSIG
VTBD 280400Z 32004KT 260V030 9999 FEW020 31/25 Q1011 NOSIG
VTBD 280330Z 34004KT 250V050 9999 FEW020 30/26 Q1011 NOSIG
VTBD 280300Z 08003KT 360V150 9999 FEW015 29/26 Q1011 NOSIG
VTBD 280230Z VRB03KT 9000 FEW012 29/25 Q1011 NOSIG
VTBD 280200Z 36003KT 260V060 9000 FEW012 29/27 Q1011 NOSIG
VTBD 280130Z 03003KT 350V080 9000 FEW020 28/26 Q1011 NOSIG
VTBD 280100Z 03003KT 360V060 9000 FEW020 27/26 Q1011 NOSIG
VTBD 280030Z 00000KT 9000 FEW020 27/26 Q1010 NOSIG
VTBD 280000Z VRB02KT 9000 FEW020 26/26 Q1010 NOSIG
VTBD 272330Z VRB02KT 9000 FEW020 BKN080 26/26 Q1010 NOSIG
VTBD 272300Z 01002KT 9000 FEW020 BKN080 26/26 Q1009 NOSIG
VTBD 272230Z 03003KT 9000 FEW020 BKN080 26/26 Q1009 NOSIG
VTBD 272200Z 02002KT 9000 FEW020 BKN080 26/26 Q1009 NOSIG
VTBD 272130Z 05003KT 9999 FEW020 BKN080 25/25 Q1009 NOSIG
VTBD 272100Z 06003KT 9999 FEW020 25/25 Q1009 NOSIG
VTBD 272030Z 05003KT 9999 FEW020 25/25 Q1008 NOSIG
VTBD 272000Z 05003KT 9999 FEW020 25/25 Q1008 NOSIG
VTBD 271930Z 04001KT 9999 FEW020 26/26 Q1008 NOSIG
VTBD 271900Z 02002KT 9999 FEW020 26/26 Q1009 NOSIG
VTBD 271830Z 03002KT 9999 FEW020 26/26 Q1009 NOSIG
VTBD 271800Z 00000KT 9999 FEW020 26/26 Q1009 NOSIG
VTBD 271730Z 06002KT 9999 FEW020 26/25 Q1010 NOSIG
VTBD 271700Z 08004KT 9999 FEW020 26/25 Q1010 NOSIG
VTBD 271630Z 06002KT 9999 FEW020 26/25 Q1010 NOSIG
VTBD 271600Z 05003KT 9999 FEW020 26/25 Q1011 NOSIG
VTBD 271530Z 04003KT 9999 FEW020 26/25 Q1011 NOSIG
VTBD 271500Z 06003KT 9999 FEW020 26/25 Q1011 NOSIG
VTBD 271430Z VRB02KT 9999 FEW020 26/25 Q1010 NOSIG
VTBD 271400Z 01002KT 9999 FEW020 26/25 Q1010 NOSIG
VTBD 271330Z 04004KT 9999 FEW020 26/25 Q1010 NOSIG
VTBD 271300Z 03003KT 9999 FEW020 25/25 Q1009 NOSIG
VTBD 271230Z 36003KT 9999 FEW020 SCT100 25/25 Q1009 NOSIG
VTBD 271200Z 06004KT 9999 -RA FEW020 SCT100 25/25 Q1009 NOSIG
VTBD 271130Z 03004KT 9999 FEW020 SCT100 26/25 Q1008 NOSIG
VTBD 271100Z 35004KT 310V030 9999 -RA FEW010 BKN100 26/25 Q1007 NOSIG
TAF VTBD 280500Z 2806/2912 12005KT 9999 FEW020 
     TEMPO 2806/2812 11010G25KT 4000 TSRA FEW018CB SCT030 BKN100 
     BECMG 2818/2820 35005KT 
     BECMG 2903/2905 18005KT 
     TEMPO 2906/2912 20010G25KT 4000 TSRA FEW018CB SCT030 BKN100